sensor_id;sensor_type;location;lat;lon;timestamp;temperature;humidity
65207;SHT31;58477;48.072;11.970;2022-11-20T00:01:40;4.46;91.42
65207;SHT31;58477;48.072;11.970;2022-11-20T00:04:05;4.47;91.39
65207;SHT31;58477;48.072;11.970;2022-11-20T00:06:31;4.47;91.51
65207;SHT31;58477;48.072;11.970;2022-11-20T00:08:58;4.47;91.06
65207;SHT31;58477;48.072;11.970;2022-11-20T00:11:26;4.46;91.33
65207;SHT31;58477;48.072;11.970;2022-11-20T00:13:56;4.50;91.56
65207;SHT31;58477;48.072;11.970;2022-11-20T00:16:25;4.50;91.64
65207;SHT31;58477;48.072;11.970;2022-11-20T00:18:52;4.52;91.33
65207;SHT31;58477;48.072;11.970;2022-11-20T00:21:24;4.50;90.99
65207;SHT31;58477;48.072;11.970;2022-11-20T00:23:51;4.52;91.20
65207;SHT31;58477;48.072;11.970;2022-11-20T00:26:18;4.50;90.88
65207;SHT31;58477;48.072;11.970;2022-11-20T00:28:56;4.50;90.60
65207;SHT31;58477;48.072;11.970;2022-11-20T00:31:22;4.50;90.66
65207;SHT31;58477;48.072;11.970;2022-11-20T00:33:48;4.54;90.83
65207;SHT31;58477;48.072;11.970;2022-11-20T00:36:25;4.57;90.42
65207;SHT31;58477;48.072;11.970;2022-11-20T00:38:52;4.60;90.50
65207;SHT31;58477;48.072;11.970;2022-11-20T00:41:18;4.57;90.37
65207;SHT31;58477;48.072;11.970;2022-11-20T00:43:44;4.59;90.58
65207;SHT31;58477;48.072;11.970;2022-11-20T00:46:12;4.63;90.45
65207;SHT31;58477;48.072;11.970;2022-11-20T00:48:38;4.63;90.22
65207;SHT31;58477;48.072;11.970;2022-11-20T00:51:04;4.64;90.70
65207;SHT31;58477;48.072;11.970;2022-11-20T00:53:30;4.69;89.83
65207;SHT31;58477;48.072;11.970;2022-11-20T00:56:00;4.66;90.38
65207;SHT31;58477;48.072;11.970;2022-11-20T00:58:30;4.74;90.52
65207;SHT31;58477;48.072;11.970;2022-11-20T01:01:03;4.71;90.11
65207;SHT31;58477;48.072;11.970;2022-11-20T01:03:31;4.73;90.30
65207;SHT31;58477;48.072;11.970;2022-11-20T01:06:09;4.80;89.85
65207;SHT31;58477;48.072;11.970;2022-11-20T01:08:35;4.80;89.48
65207;SHT31;58477;48.072;11.970;2022-11-20T01:11:06;4.79;89.97
65207;SHT31;58477;48.072;11.970;2022-11-20T01:13:32;4.83;90.21
65207;SHT31;58477;48.072;11.970;2022-11-20T01:19:11;4.79;90.23
65207;SHT31;58477;48.072;11.970;2022-11-20T01:21:39;4.81;89.77
65207;SHT31;58477;48.072;11.970;2022-11-20T01:24:06;4.77;89.94
65207;SHT31;58477;48.072;11.970;2022-11-20T01:26:34;4.74;90.08
65207;SHT31;58477;48.072;11.970;2022-11-20T01:29:01;4.76;90.47
65207;SHT31;58477;48.072;11.970;2022-11-20T01:31:29;4.74;90.16
65207;SHT31;58477;48.072;11.970;2022-11-20T01:33:58;4.74;90.22
65207;SHT31;58477;48.072;11.970;2022-11-20T01:36:26;4.74;90.26
65207;SHT31;58477;48.072;11.970;2022-11-20T01:38:53;4.73;90.89
65207;SHT31;58477;48.072;11.970;2022-11-20T01:41:19;4.71;91.22
65207;SHT31;58477;48.072;11.970;2022-11-20T01:44:05;4.74;91.18
65207;SHT31;58477;48.072;11.970;2022-11-20T01:46:32;4.69;91.68
65207;SHT31;58477;48.072;11.970;2022-11-20T01:49:09;4.66;91.06
65207;SHT31;58477;48.072;11.970;2022-11-20T01:51:49;4.64;91.05
65207;SHT31;58477;48.072;11.970;2022-11-20T01:54:23;4.59;91.48
65207;SHT31;58477;48.072;11.970;2022-11-20T01:56:51;4.59;91.69
65207;SHT31;58477;48.072;11.970;2022-11-20T01:59:20;4.56;91.56
65207;SHT31;58477;48.072;11.970;2022-11-20T02:01:46;4.53;91.73
65207;SHT31;58477;48.072;11.970;2022-11-20T02:04:12;4.56;91.19
65207;SHT31;58477;48.072;11.970;2022-11-20T02:06:46;4.59;91.35
65207;SHT31;58477;48.072;11.970;2022-11-20T02:09:13;4.57;91.38
65207;SHT31;58477;48.072;11.970;2022-11-20T02:11:39;4.60;91.44
65207;SHT31;58477;48.072;11.970;2022-11-20T02:14:05;4.59;91.66
65207;SHT31;58477;48.072;11.970;2022-11-20T02:16:34;4.54;91.62
65207;SHT31;58477;48.072;11.970;2022-11-20T02:19:02;4.59;91.51
65207;SHT31;58477;48.072;11.970;2022-11-20T02:22:08;4.61;90.99
65207;SHT31;58477;48.072;11.970;2022-11-20T02:24:37;4.61;91.31
65207;SHT31;58477;48.072;11.970;2022-11-20T02:27:14;4.59;91.40
65207;SHT31;58477;48.072;11.970;2022-11-20T02:29:55;4.57;91.29
65207;SHT31;58477;48.072;11.970;2022-11-20T02:32:28;4.60;90.94
65207;SHT31;58477;48.072;11.970;2022-11-20T02:34:53;4.60;90.96
65207;SHT31;58477;48.072;11.970;2022-11-20T02:37:20;4.66;90.79
65207;SHT31;58477;48.072;11.970;2022-11-20T02:39:46;4.59;90.91
65207;SHT31;58477;48.072;11.970;2022-11-20T02:42:13;4.64;90.84
65207;SHT31;58477;48.072;11.970;2022-11-20T02:44:39;4.60;90.18
65207;SHT31;58477;48.072;11.970;2022-11-20T02:47:04;4.64;90.16
65207;SHT31;58477;48.072;11.970;2022-11-20T02:49:30;4.67;90.09
65207;SHT31;58477;48.072;11.970;2022-11-20T02:51:55;4.66;90.06
65207;SHT31;58477;48.072;11.970;2022-11-20T02:54:20;4.69;90.05
65207;SHT31;58477;48.072;11.970;2022-11-20T02:56:46;4.70;89.72
65207;SHT31;58477;48.072;11.970;2022-11-20T02:59:11;4.69;90.13
65207;SHT31;58477;48.072;11.970;2022-11-20T03:01:37;4.71;89.49
65207;SHT31;58477;48.072;11.970;2022-11-20T03:04:02;4.70;89.79
65207;SHT31;58477;48.072;11.970;2022-11-20T03:06:28;4.67;90.19
65207;SHT31;58477;48.072;11.970;2022-11-20T03:08:53;4.67;89.88
65207;SHT31;58477;48.072;11.970;2022-11-20T03:11:19;4.63;90.22
65207;SHT31;58477;48.072;11.970;2022-11-20T03:13:44;4.63;89.46
65207;SHT31;58477;48.072;11.970;2022-11-20T03:16:13;4.64;89.65
65207;SHT31;58477;48.072;11.970;2022-11-20T03:18:39;4.69;89.60
65207;SHT31;58477;48.072;11.970;2022-11-20T03:21:06;4.67;89.23
65207;SHT31;58477;48.072;11.970;2022-11-20T03:23:32;4.63;89.03
65207;SHT31;58477;48.072;11.970;2022-11-20T03:26:08;4.67;89.61
65207;SHT31;58477;48.072;11.970;2022-11-20T03:28:34;4.67;89.10
65207;SHT31;58477;48.072;11.970;2022-11-20T03:31:11;4.71;89.21
65207;SHT31;58477;48.072;11.970;2022-11-20T03:33:38;4.71;89.22
65207;SHT31;58477;48.072;11.970;2022-11-20T03:36:06;4.71;89.34
65207;SHT31;58477;48.072;11.970;2022-11-20T03:38:33;4.74;88.42
65207;SHT31;58477;48.072;11.970;2022-11-20T03:41:03;4.73;88.83
65207;SHT31;58477;48.072;11.970;2022-11-20T03:43:29;4.73;89.41
65207;SHT31;58477;48.072;11.970;2022-11-20T03:45:54;4.71;88.76
65207;SHT31;58477;48.072;11.970;2022-11-20T03:48:20;4.71;88.59
65207;SHT31;58477;48.072;11.970;2022-11-20T03:50:45;4.74;88.01
65207;SHT31;58477;48.072;11.970;2022-11-20T03:53:13;4.74;88.27
65207;SHT31;58477;48.072;11.970;2022-11-20T03:55:39;4.73;87.87
65207;SHT31;58477;48.072;11.970;2022-11-20T03:58:04;4.76;88.41
65207;SHT31;58477;48.072;11.970;2022-11-20T04:00:29;4.76;88.62
65207;SHT31;58477;48.072;11.970;2022-11-20T04:02:58;4.71;88.28
65207;SHT31;58477;48.072;11.970;2022-11-20T04:05:24;4.74;88.12
65207;SHT31;58477;48.072;11.970;2022-11-20T04:07:49;4.79;87.94
65207;SHT31;58477;48.072;11.970;2022-11-20T04:10:15;4.73;88.00
65207;SHT31;58477;48.072;11.970;2022-11-20T04:12:40;4.71;87.98
65207;SHT31;58477;48.072;11.970;2022-11-20T04:15:06;4.76;87.68
65207;SHT31;58477;48.072;11.970;2022-11-20T04:17:31;4.73;87.99
65207;SHT31;58477;48.072;11.970;2022-11-20T04:19:57;4.73;87.56
65207;SHT31;58477;48.072;11.970;2022-11-20T04:22:22;4.71;87.53
65207;SHT31;58477;48.072;11.970;2022-11-20T04:24:48;4.70;88.10
65207;SHT31;58477;48.072;11.970;2022-11-20T04:27:13;4.69;87.92
65207;SHT31;58477;48.072;11.970;2022-11-20T04:29:38;4.67;88.36
65207;SHT31;58477;48.072;11.970;2022-11-20T04:32:05;4.61;88.00
65207;SHT31;58477;48.072;11.970;2022-11-20T04:34:30;4.66;87.56
65207;SHT31;58477;48.072;11.970;2022-11-20T04:36:56;4.64;87.80
65207;SHT31;58477;48.072;11.970;2022-11-20T04:39:21;4.64;87.78
65207;SHT31;58477;48.072;11.970;2022-11-20T04:41:47;4.64;87.66
65207;SHT31;58477;48.072;11.970;2022-11-20T04:44:12;4.61;87.39
65207;SHT31;58477;48.072;11.970;2022-11-20T04:46:40;4.63;87.53
65207;SHT31;58477;48.072;11.970;2022-11-20T04:49:06;4.56;87.42
65207;SHT31;58477;48.072;11.970;2022-11-20T04:51:32;4.60;87.52
65207;SHT31;58477;48.072;11.970;2022-11-20T04:53:58;4.61;87.45
65207;SHT31;58477;48.072;11.970;2022-11-20T04:56:24;4.60;87.54
65207;SHT31;58477;48.072;11.970;2022-11-20T04:58:50;4.63;87.71
65207;SHT31;58477;48.072;11.970;2022-11-20T05:01:20;4.64;86.95
65207;SHT31;58477;48.072;11.970;2022-11-20T05:03:46;4.64;86.96
65207;SHT31;58477;48.072;11.970;2022-11-20T05:06:14;4.66;87.54
65207;SHT31;58477;48.072;11.970;2022-11-20T05:08:40;4.61;87.26
65207;SHT31;58477;48.072;11.970;2022-11-20T05:11:18;4.57;87.30
65207;SHT31;58477;48.072;11.970;2022-11-20T05:13:44;4.57;87.54
65207;SHT31;58477;48.072;11.970;2022-11-20T05:16:14;4.54;87.54
65207;SHT31;58477;48.072;11.970;2022-11-20T05:18:40;4.56;87.71
65207;SHT31;58477;48.072;11.970;2022-11-20T05:21:07;4.53;87.90
65207;SHT31;58477;48.072;11.970;2022-11-20T05:23:33;4.49;88.33
65207;SHT31;58477;48.072;11.970;2022-11-20T05:26:00;4.49;87.39
65207;SHT31;58477;48.072;11.970;2022-11-20T05:28:27;4.50;88.13
65207;SHT31;58477;48.072;11.970;2022-11-20T05:30:53;4.46;87.90
65207;SHT31;58477;48.072;11.970;2022-11-20T05:33:19;4.47;88.25
65207;SHT31;58477;48.072;11.970;2022-11-20T05:35:44;4.43;88.23
65207;SHT31;58477;48.072;11.970;2022-11-20T05:38:10;4.42;88.09
65207;SHT31;58477;48.072;11.970;2022-11-20T05:40:35;4.43;87.81
65207;SHT31;58477;48.072;11.970;2022-11-20T05:43:01;4.40;88.49
65207;SHT31;58477;48.072;11.970;2022-11-20T05:45:26;4.47;87.55
65207;SHT31;58477;48.072;11.970;2022-11-20T05:47:52;4.50;87.40
65207;SHT31;58477;48.072;11.970;2022-11-20T05:50:17;4.52;87.27
65207;SHT31;58477;48.072;11.970;2022-11-20T05:52:43;4.52;87.92
65207;SHT31;58477;48.072;11.970;2022-11-20T05:55:09;4.57;87.43
65207;SHT31;58477;48.072;11.970;2022-11-20T05:57:34;4.50;87.57
65207;SHT31;58477;48.072;11.970;2022-11-20T06:00:00;4.52;87.68
65207;SHT31;58477;48.072;11.970;2022-11-20T06:02:26;4.47;88.18
65207;SHT31;58477;48.072;11.970;2022-11-20T06:04:51;4.47;88.01
65207;SHT31;58477;48.072;11.970;2022-11-20T06:07:17;4.45;88.19
65207;SHT31;58477;48.072;11.970;2022-11-20T06:09:42;4.40;87.77
65207;SHT31;58477;48.072;11.970;2022-11-20T06:12:08;4.43;88.58
65207;SHT31;58477;48.072;11.970;2022-11-20T06:14:33;4.42;88.30
65207;SHT31;58477;48.072;11.970;2022-11-20T06:16:59;4.42;88.12
65207;SHT31;58477;48.072;11.970;2022-11-20T06:19:25;4.42;88.54
65207;SHT31;58477;48.072;11.970;2022-11-20T06:21:50;4.46;88.17
65207;SHT31;58477;48.072;11.970;2022-11-20T06:24:16;4.40;88.41
65207;SHT31;58477;48.072;11.970;2022-11-20T06:26:42;4.47;88.37
65207;SHT31;58477;48.072;11.970;2022-11-20T06:29:07;4.47;88.65
65207;SHT31;58477;48.072;11.970;2022-11-20T06:31:33;4.50;88.25
65207;SHT31;58477;48.072;11.970;2022-11-20T06:34:00;4.52;88.02
65207;SHT31;58477;48.072;11.970;2022-11-20T06:36:26;4.52;88.19
65207;SHT31;58477;48.072;11.970;2022-11-20T06:38:52;4.56;87.73
65207;SHT31;58477;48.072;11.970;2022-11-20T06:41:19;4.56;88.17
65207;SHT31;58477;48.072;11.970;2022-11-20T06:43:46;4.54;88.21
65207;SHT31;58477;48.072;11.970;2022-11-20T06:46:13;4.47;88.56
65207;SHT31;58477;48.072;11.970;2022-11-20T06:48:39;4.52;87.59
65207;SHT31;58477;48.072;11.970;2022-11-20T06:51:06;4.47;88.05
65207;SHT31;58477;48.072;11.970;2022-11-20T06:53:32;4.42;88.21
65207;SHT31;58477;48.072;11.970;2022-11-20T06:55:58;4.40;87.73
65207;SHT31;58477;48.072;11.970;2022-11-20T06:58:27;4.36;87.25
65207;SHT31;58477;48.072;11.970;2022-11-20T07:00:53;4.29;87.79
65207;SHT31;58477;48.072;11.970;2022-11-20T07:03:19;4.23;87.68
65207;SHT31;58477;48.072;11.970;2022-11-20T07:05:44;4.20;87.57
65207;SHT31;58477;48.072;11.970;2022-11-20T07:08:11;4.17;87.91
65207;SHT31;58477;48.072;11.970;2022-11-20T07:10:37;4.06;88.22
65207;SHT31;58477;48.072;11.970;2022-11-20T07:13:03;4.02;88.08
65207;SHT31;58477;48.072;11.970;2022-11-20T07:15:29;4.01;88.42
65207;SHT31;58477;48.072;11.970;2022-11-20T07:17:55;4.02;87.81
65207;SHT31;58477;48.072;11.970;2022-11-20T07:20:23;4.03;87.43
65207;SHT31;58477;48.072;11.970;2022-11-20T07:22:53;4.09;87.12
65207;SHT31;58477;48.072;11.970;2022-11-20T07:25:19;4.07;87.09
65207;SHT31;58477;48.072;11.970;2022-11-20T07:27:44;4.09;86.82
65207;SHT31;58477;48.072;11.970;2022-11-20T07:30:10;4.06;87.28
65207;SHT31;58477;48.072;11.970;2022-11-20T07:32:36;4.10;86.75
65207;SHT31;58477;48.072;11.970;2022-11-20T07:35:01;4.43;86.31
65207;SHT31;58477;48.072;11.970;2022-11-20T07:37:27;4.61;85.30
65207;SHT31;58477;48.072;11.970;2022-11-20T07:39:52;5.21;83.96
65207;SHT31;58477;48.072;11.970;2022-11-20T07:42:18;6.14;80.56
65207;SHT31;58477;48.072;11.970;2022-11-20T07:44:43;7.32;77.60
65207;SHT31;58477;48.072;11.970;2022-11-20T07:47:08;8.01;74.75
65207;SHT31;58477;48.072;11.970;2022-11-20T07:49:34;8.00;73.56
65207;SHT31;58477;48.072;11.970;2022-11-20T07:51:59;8.34;73.63
65207;SHT31;58477;48.072;11.970;2022-11-20T07:54:25;8.55;73.23
65207;SHT31;58477;48.072;11.970;2022-11-20T07:56:50;8.37;72.95
65207;SHT31;58477;48.072;11.970;2022-11-20T07:59:16;9.53;71.35
65207;SHT31;58477;48.072;11.970;2022-11-20T08:01:42;8.89;71.35
65207;SHT31;58477;48.072;11.970;2022-11-20T08:04:09;8.20;72.80
65207;SHT31;58477;48.072;11.970;2022-11-20T08:06:35;9.12;71.30
65207;SHT31;58477;48.072;11.970;2022-11-20T08:09:00;7.77;74.61
65207;SHT31;58477;48.072;11.970;2022-11-20T08:11:26;6.80;77.25
65207;SHT31;58477;48.072;11.970;2022-11-20T08:14:09;6.38;78.93
65207;SHT31;58477;48.072;11.970;2022-11-20T08:19:04;5.87;79.69
65207;SHT31;58477;48.072;11.970;2022-11-20T08:21:30;5.72;80.73
65207;SHT31;58477;48.072;11.970;2022-11-20T08:23:57;5.79;80.50
65207;SHT31;58477;48.072;11.970;2022-11-20T08:26:23;5.77;80.74
65207;SHT31;58477;48.072;11.970;2022-11-20T08:28:52;5.77;80.83
65207;SHT31;58477;48.072;11.970;2022-11-20T08:31:18;5.75;80.74
65207;SHT31;58477;48.072;11.970;2022-11-20T08:33:43;5.73;80.47
65207;SHT31;58477;48.072;11.970;2022-11-20T08:36:09;5.65;80.38
65207;SHT31;58477;48.072;11.970;2022-11-20T08:38:34;5.67;81.16
65207;SHT31;58477;48.072;11.970;2022-11-20T08:41:01;5.69;79.66
65207;SHT31;58477;48.072;11.970;2022-11-20T08:43:45;5.67;80.10
65207;SHT31;58477;48.072;11.970;2022-11-20T08:46:11;5.63;80.90
65207;SHT31;58477;48.072;11.970;2022-11-20T08:48:37;5.66;80.69
65207;SHT31;58477;48.072;11.970;2022-11-20T08:51:02;5.72;80.36
65207;SHT31;58477;48.072;11.970;2022-11-20T08:53:28;5.75;79.58
65207;SHT31;58477;48.072;11.970;2022-11-20T08:55:54;5.77;79.76
65207;SHT31;58477;48.072;11.970;2022-11-20T08:58:19;5.73;79.74
65207;SHT31;58477;48.072;11.970;2022-11-20T09:00:45;5.80;80.13
65207;SHT31;58477;48.072;11.970;2022-11-20T09:03:10;5.80;79.44
65207;SHT31;58477;48.072;11.970;2022-11-20T09:05:37;5.79;79.36
65207;SHT31;58477;48.072;11.970;2022-11-20T09:08:03;5.80;79.26
65207;SHT31;58477;48.072;11.970;2022-11-20T09:10:28;5.83;78.43
65207;SHT31;58477;48.072;11.970;2022-11-20T09:12:54;5.92;79.41
65207;SHT31;58477;48.072;11.970;2022-11-20T09:15:20;5.99;78.95
65207;SHT31;58477;48.072;11.970;2022-11-20T09:20:18;6.16;78.08
65207;SHT31;58477;48.072;11.970;2022-11-20T09:22:44;6.33;78.82
65207;SHT31;58477;48.072;11.970;2022-11-20T09:25:09;6.38;78.71
65207;SHT31;58477;48.072;11.970;2022-11-20T09:27:35;6.37;76.87
65207;SHT31;58477;48.072;11.970;2022-11-20T09:30:01;6.38;77.65
65207;SHT31;58477;48.072;11.970;2022-11-20T09:32:26;6.40;77.73
65207;SHT31;58477;48.072;11.970;2022-11-20T09:34:52;6.27;76.75
65207;SHT31;58477;48.072;11.970;2022-11-20T09:37:17;6.31;77.26
65207;SHT31;58477;48.072;11.970;2022-11-20T09:39:43;6.40;77.42
65207;SHT31;58477;48.072;11.970;2022-11-20T09:50:11;6.11;76.52
65207;SHT31;58477;48.072;11.970;2022-11-20T09:55:11;6.27;75.98
65207;SHT31;58477;48.072;11.970;2022-11-20T09:57:40;6.36;76.66
65207;SHT31;58477;48.072;11.970;2022-11-20T10:00:11;6.37;77.12
65207;SHT31;58477;48.072;11.970;2022-11-20T10:02:45;6.36;75.67
65207;SHT31;58477;48.072;11.970;2022-11-20T10:05:17;6.40;75.81
65207;SHT31;58477;48.072;11.970;2022-11-20T10:10:45;6.77;75.18
65207;SHT31;58477;48.072;11.970;2022-11-20T10:13:33;6.98;73.78
65207;SHT31;58477;48.072;11.970;2022-11-20T10:21:53;7.09;73.54
65207;SHT31;58477;48.072;11.970;2022-11-20T10:30:03;7.23;72.38
65207;SHT31;58477;48.072;11.970;2022-11-20T10:32:41;7.28;73.06
65207;SHT31;58477;48.072;11.970;2022-11-20T10:37:42;7.26;72.79
65207;SHT31;58477;48.072;11.970;2022-11-20T10:40:23;7.35;72.53
65207;SHT31;58477;48.072;11.970;2022-11-20T10:43:02;7.53;71.18
65207;SHT31;58477;48.072;11.970;2022-11-20T10:48:23;7.94;71.48
65207;SHT31;58477;48.072;11.970;2022-11-20T10:54:22;7.93;70.32
65207;SHT31;58477;48.072;11.970;2022-11-20T10:56:51;8.00;69.69
65207;SHT31;58477;48.072;11.970;2022-11-20T11:02:35;7.74;70.49
65207;SHT31;58477;48.072;11.970;2022-11-20T11:05:12;7.72;70.37
65207;SHT31;58477;48.072;11.970;2022-11-20T11:07:40;7.89;71.09
65207;SHT31;58477;48.072;11.970;2022-11-20T11:10:18;8.03;70.54
65207;SHT31;58477;48.072;11.970;2022-11-20T11:12:48;8.83;69.38
65207;SHT31;58477;48.072;11.970;2022-11-20T11:15:38;9.61;67.19
65207;SHT31;58477;48.072;11.970;2022-11-20T11:18:04;9.16;66.95
65207;SHT31;58477;48.072;11.970;2022-11-20T11:20:29;8.54;68.06
65207;SHT31;58477;48.072;11.970;2022-11-20T11:22:57;8.49;69.32
65207;SHT31;58477;48.072;11.970;2022-11-20T11:25:35;7.98;68.78
65207;SHT31;58477;48.072;11.970;2022-11-20T11:28:21;7.76;68.89
65207;SHT31;58477;48.072;11.970;2022-11-20T11:30:47;7.80;69.25
65207;SHT31;58477;48.072;11.970;2022-11-20T11:33:33;7.84;70.12
65207;SHT31;58477;48.072;11.970;2022-11-20T11:36:03;7.73;69.33
65207;SHT31;58477;48.072;11.970;2022-11-20T11:38:34;7.60;70.32
65207;SHT31;58477;48.072;11.970;2022-11-20T11:41:00;7.45;69.93
65207;SHT31;58477;48.072;11.970;2022-11-20T11:43:29;7.43;70.18
65207;SHT31;58477;48.072;11.970;2022-11-20T11:49:16;7.28;70.87
65207;SHT31;58477;48.072;11.970;2022-11-20T11:54:29;7.22;71.88
65207;SHT31;58477;48.072;11.970;2022-11-20T11:57:00;7.26;72.14
65207;SHT31;58477;48.072;11.970;2022-11-20T11:59:40;7.33;71.28
65207;SHT31;58477;48.072;11.970;2022-11-20T12:02:24;7.38;72.82
65207;SHT31;58477;48.072;11.970;2022-11-20T12:04:54;7.42;71.38
65207;SHT31;58477;48.072;11.970;2022-11-20T12:10:01;7.48;71.35
65207;SHT31;58477;48.072;11.970;2022-11-20T12:12:36;7.36;70.34
65207;SHT31;58477;48.072;11.970;2022-11-20T12:15:06;7.35;71.52
65207;SHT31;58477;48.072;11.970;2022-11-20T12:17:36;7.39;71.51
65207;SHT31;58477;48.072;11.970;2022-11-20T12:20:01;7.40;71.92
65207;SHT31;58477;48.072;11.970;2022-11-20T12:22:33;7.50;71.55
65207;SHT31;58477;48.072;11.970;2022-11-20T12:25:42;7.72;72.14
65207;SHT31;58477;48.072;11.970;2022-11-20T12:30:33;7.94;70.84
65207;SHT31;58477;48.072;11.970;2022-11-20T12:33:17;7.91;70.59
65207;SHT31;58477;48.072;11.970;2022-11-20T12:35:57;7.95;71.42
65207;SHT31;58477;48.072;11.970;2022-11-20T12:47:46;7.73;71.09
65207;SHT31;58477;48.072;11.970;2022-11-20T12:52:56;7.60;71.64
65207;SHT31;58477;48.072;11.970;2022-11-20T13:04:24;6.63;76.14
65207;SHT31;58477;48.072;11.970;2022-11-20T13:06:53;6.58;75.72
65207;SHT31;58477;48.072;11.970;2022-11-20T13:09:20;6.27;79.55
65207;SHT31;58477;48.072;11.970;2022-11-20T13:12:10;6.10;79.88
65207;SHT31;58477;48.072;11.970;2022-11-20T13:14:56;6.06;79.62
65207;SHT31;58477;48.072;11.970;2022-11-20T13:17:34;6.11;79.13
65207;SHT31;58477;48.072;11.970;2022-11-20T13:20:04;6.13;79.30
65207;SHT31;58477;48.072;11.970;2022-11-20T13:22:46;6.13;79.49
65207;SHT31;58477;48.072;11.970;2022-11-20T13:25:41;6.13;79.84
65207;SHT31;58477;48.072;11.970;2022-11-20T13:30:36;6.19;79.58
65207;SHT31;58477;48.072;11.970;2022-11-20T13:33:33;6.20;79.91
65207;SHT31;58477;48.072;11.970;2022-11-20T13:36:02;6.14;79.35
65207;SHT31;58477;48.072;11.970;2022-11-20T13:38:47;6.07;80.01
65207;SHT31;58477;48.072;11.970;2022-11-20T13:41:30;6.03;81.21
65207;SHT31;58477;48.072;11.970;2022-11-20T13:46:47;5.96;81.97
65207;SHT31;58477;48.072;11.970;2022-11-20T13:57:14;5.79;81.66
65207;SHT31;58477;48.072;11.970;2022-11-20T14:02:26;5.44;82.75
65207;SHT31;58477;48.072;11.970;2022-11-20T14:04:54;5.42;83.21
65207;SHT31;58477;48.072;11.970;2022-11-20T14:07:35;5.35;84.67
65207;SHT31;58477;48.072;11.970;2022-11-20T14:10:02;5.34;84.53
65207;SHT31;58477;48.072;11.970;2022-11-20T14:12:30;5.38;85.40
65207;SHT31;58477;48.072;11.970;2022-11-20T14:14:57;5.30;86.25
65207;SHT31;58477;48.072;11.970;2022-11-20T14:19:52;5.28;87.07
65207;SHT31;58477;48.072;11.970;2022-11-20T14:22:22;5.25;87.64
65207;SHT31;58477;48.072;11.970;2022-11-20T14:25:00;5.28;87.22
65207;SHT31;58477;48.072;11.970;2022-11-20T14:27:26;5.27;87.04
65207;SHT31;58477;48.072;11.970;2022-11-20T14:29:51;5.34;86.88
65207;SHT31;58477;48.072;11.970;2022-11-20T14:32:19;5.32;86.68
65207;SHT31;58477;48.072;11.970;2022-11-20T14:34:47;5.38;86.39
65207;SHT31;58477;48.072;11.970;2022-11-20T14:37:23;5.42;86.03
65207;SHT31;58477;48.072;11.970;2022-11-20T14:39:54;5.44;85.95
65207;SHT31;58477;48.072;11.970;2022-11-20T14:42:27;5.42;85.96
65207;SHT31;58477;48.072;11.970;2022-11-20T14:45:02;5.46;85.36
65207;SHT31;58477;48.072;11.970;2022-11-20T14:47:30;5.44;85.73
65207;SHT31;58477;48.072;11.970;2022-11-20T14:49:57;5.41;85.73
65207;SHT31;58477;48.072;11.970;2022-11-20T14:52:25;5.48;86.12
65207;SHT31;58477;48.072;11.970;2022-11-20T14:54:53;5.52;84.99
65207;SHT31;58477;48.072;11.970;2022-11-20T14:57:24;5.54;84.58
65207;SHT31;58477;48.072;11.970;2022-11-20T14:59:51;5.51;84.78
65207;SHT31;58477;48.072;11.970;2022-11-20T15:02:17;5.45;84.56
65207;SHT31;58477;48.072;11.970;2022-11-20T15:04:51;5.55;84.76
65207;SHT31;58477;48.072;11.970;2022-11-20T15:07:30;5.51;84.69
65207;SHT31;58477;48.072;11.970;2022-11-20T15:10:06;5.54;84.71
65207;SHT31;58477;48.072;11.970;2022-11-20T15:12:34;5.51;84.26
65207;SHT31;58477;48.072;11.970;2022-11-20T15:15:02;5.51;83.96
65207;SHT31;58477;48.072;11.970;2022-11-20T15:17:30;5.55;84.38
65207;SHT31;58477;48.072;11.970;2022-11-20T15:19:55;5.51;84.22
65207;SHT31;58477;48.072;11.970;2022-11-20T15:22:21;5.51;83.98
65207;SHT31;58477;48.072;11.970;2022-11-20T15:24:46;5.58;83.43
65207;SHT31;58477;48.072;11.970;2022-11-20T15:27:12;5.55;83.16
65207;SHT31;58477;48.072;11.970;2022-11-20T15:29:37;5.51;83.16
65207;SHT31;58477;48.072;11.970;2022-11-20T15:32:03;5.52;83.34
65207;SHT31;58477;48.072;11.970;2022-11-20T15:34:28;5.56;81.98
65207;SHT31;58477;48.072;11.970;2022-11-20T15:36:54;5.54;82.62
65207;SHT31;58477;48.072;11.970;2022-11-20T15:39:20;5.52;82.86
65207;SHT31;58477;48.072;11.970;2022-11-20T15:41:46;5.52;82.47
65207;SHT31;58477;48.072;11.970;2022-11-20T15:44:12;5.46;82.62
65207;SHT31;58477;48.072;11.970;2022-11-20T15:46:40;5.44;82.47
65207;SHT31;58477;48.072;11.970;2022-11-20T15:49:15;5.48;81.66
65207;SHT31;58477;48.072;11.970;2022-11-20T15:51:47;5.48;81.99
65207;SHT31;58477;48.072;11.970;2022-11-20T15:54:18;5.42;81.95
65207;SHT31;58477;48.072;11.970;2022-11-20T15:56:46;5.36;82.22
65207;SHT31;58477;48.072;11.970;2022-11-20T15:59:12;5.44;81.84
65207;SHT31;58477;48.072;11.970;2022-11-20T16:01:39;5.44;82.29
65207;SHT31;58477;48.072;11.970;2022-11-20T16:04:13;5.49;81.55
65207;SHT31;58477;48.072;11.970;2022-11-20T16:06:39;5.45;81.46
65207;SHT31;58477;48.072;11.970;2022-11-20T16:09:05;5.48;81.52
65207;SHT31;58477;48.072;11.970;2022-11-20T16:11:30;5.44;81.34
65207;SHT31;58477;48.072;11.970;2022-11-20T16:13:56;5.44;81.81
65207;SHT31;58477;48.072;11.970;2022-11-20T16:16:40;5.34;81.97
65207;SHT31;58477;48.072;11.970;2022-11-20T16:19:10;5.34;81.60
65207;SHT31;58477;48.072;11.970;2022-11-20T16:21:36;5.24;81.95
65207;SHT31;58477;48.072;11.970;2022-11-20T16:24:09;5.17;81.93
65207;SHT31;58477;48.072;11.970;2022-11-20T16:26:36;5.12;81.93
65207;SHT31;58477;48.072;11.970;2022-11-20T16:29:03;5.14;81.75
65207;SHT31;58477;48.072;11.970;2022-11-20T16:31:29;5.11;81.99
65207;SHT31;58477;48.072;11.970;2022-11-20T16:33:56;5.18;81.80
65207;SHT31;58477;48.072;11.970;2022-11-20T16:36:23;5.18;82.10
65207;SHT31;58477;48.072;11.970;2022-11-20T16:38:53;5.17;81.96
65207;SHT31;58477;48.072;11.970;2022-11-20T16:41:19;5.14;82.10
65207;SHT31;58477;48.072;11.970;2022-11-20T16:43:49;5.08;82.31
65207;SHT31;58477;48.072;11.970;2022-11-20T16:46:16;5.05;82.62
65207;SHT31;58477;48.072;11.970;2022-11-20T16:48:41;5.01;82.71
65207;SHT31;58477;48.072;11.970;2022-11-20T16:51:08;4.92;82.63
65207;SHT31;58477;48.072;11.970;2022-11-20T16:53:35;4.87;83.53
65207;SHT31;58477;48.072;11.970;2022-11-20T16:56:17;4.88;83.10
65207;SHT31;58477;48.072;11.970;2022-11-20T16:58:44;4.87;83.59
65207;SHT31;58477;48.072;11.970;2022-11-20T17:01:13;4.84;83.70
65207;SHT31;58477;48.072;11.970;2022-11-20T17:03:40;4.80;83.85
65207;SHT31;58477;48.072;11.970;2022-11-20T17:06:35;4.77;83.61
65207;SHT31;58477;48.072;11.970;2022-11-20T17:09:01;4.64;84.20
65207;SHT31;58477;48.072;11.970;2022-11-20T17:11:27;4.57;84.34
65207;SHT31;58477;48.072;11.970;2022-11-20T17:13:57;4.50;84.52
65207;SHT31;58477;48.072;11.970;2022-11-20T17:16:26;4.42;84.89